• Join FlightAware (Why Join?)
  • Login
  • US Flag 
02:29AM EDT


 

Airport Tracker/Info


-or-


 

Live Flight TrackerFlight Track Log ✈ KAP417 ✈ 14-May-2013 ✈ KBOS - KACK

Flight Track Log - Related Links

Times and Time Zones

All times are in EDT time to prevent confusion due to time zone crossing. See the KAP417 flight status page for this flight to view local times or setup timezone preferences in your user account.

Time Position Orientation Groundspeed Altitude Reporting Facility
EDT Latitude Longitude Course Direction KTS MPH feet Rate Location/Type
03:15PM 42.3833 -71.0167 216° Southwest 108 124 500  Level KA90
03:16PM 42.3667 -71.0333 216° Southwest 127 146 1,400 900 Climbing KA90
03:17PM 42.3167 -71.0333 180° South 142 163 2,200 600 Climbing KA90
03:18PM 42.2833 -71.0333 180° South 141 162 2,700 480 Climbing KA90
03:19PM 42.2500 -71.0000 143° Southeast 147 169 3,200 420 Climbing KA90
03:20PM 42.2167 -70.9667 143° Southeast 156 180 3,600 180 Climbing KA90
03:21PM 42.1667 -70.9333 154° Southeast 175 201 3,600  Level KA90
03:23PM 42.1125 -70.8807 144° Southeast  Level Estimated
03:30PM 41.8755 -70.6517 144° Southeast  Level Estimated
03:31PM 41.8416 -70.6191 144° Southeast  Level Estimated
03:32PM 41.8077 -70.5865 144° Southeast  Level Estimated
03:33PM 41.7738 -70.5540 144° Southeast  Level Estimated
03:34PM 41.7398 -70.5216 144° Southeast  Level Estimated
03:35PM 41.7059 -70.4891 144° Southeast  Level Estimated
03:36PM 41.6719 -70.4567 145° Southeast  Level Estimated
03:37PM 41.6380 -70.4243 145° Southeast  Level Estimated
03:38PM 41.6040 -70.3920 145° Southeast  Level Estimated
03:39PM 41.5700 -70.3597 145° Southeast  Level Estimated
03:40PM 41.5360 -70.3274 145° Southeast  Level Estimated
03:41PM 41.5021 -70.2951 145° Southeast  Level Estimated
03:42PM 41.4681 -70.2629 145° Southeast  Level Estimated
03:43PM 41.4341 -70.2308 145° Southeast  Level Estimated
03:44PM 41.4000 -70.1986 145° Southeast  Level Estimated
03:45PM 41.3660 -70.1665 145° Southeast  Level Estimated
03:46PM 41.3320 -70.1344 145° Southeast  Level Estimated
03:47PM 41.2979 -70.1024 145° Southeast  Level Estimated
03:48PM 41.2639 -70.0704 145° Southeast  Level Estimated
03:49PM 41.2531 -70.0603 145° Southeast  Level Estimated
03:50PM 41.2531 -70.0603 72° East  Level Estimated
03:51PM 41.2531 -70.0603 72° East  Level Estimated
03:52PM 41.2531 -70.0603 72° East  Level Estimated
03:53PM 41.2531 -70.0603 72° East  Level Estimated
03:54PM 41.2531 -70.0603 72° East  Level Estimated
03:55PM 41.2531 -70.0603 72° East  Level Estimated
03:56PM 41.2531 -70.0603 72° East  Level Estimated
03:57PM 41.2531 -70.0603 72° East  Level Estimated
03:58PM 41.2531 -70.0603 72° East  Level Estimated
03:59PM 41.2531 -70.0603 72° East  Level Estimated
04:00PM 41.2531 -70.0603 72° East  Level Estimated
04:01PM 41.2531 -70.0603 72° East  Level Estimated
04:02PM 41.2531 -70.0603 72° East  Level Estimated
04:03PM 41.2531 -70.0603 72° East  Level Estimated
04:04PM 41.2531 -70.0603 72° East  Level Estimated
04:05PM 41.2531 -70.0603 72° East  Level Estimated
04:06PM 41.2531 -70.0603 72° East  Level Estimated
04:07PM 41.2531 -70.0603 72° East  Level Estimated
04:08PM 41.2531 -70.0603 72° East  Level Estimated